Calgary International Airport
CYYC : now visible

Airfield :











YOU CAN JOIN US ON...

 
LOGIN :

Register | Disclaimer

   EN    FR    IT 

 









Legend :    VFR   Marginal VFR   IFR   Intensive IFR   Very Intensive IFR
Visi :
Ceiling :
>= 8 km
>= 3000ft
5 to 8 km
1000 to 3000 ft
1500m to 5 km
500 to 1000 ft
800 to 1500m
200 to 500 ft
< 800m
< 200 ft
Symbols :   Thunderstorms  Fog  Heavy snow  Heavy precipitations  Wind > 20 kt







- Airport Elevation : 3557 ft
- IATA code : YYC


CYYC - Calgary International

CURRENT METAR :
  • 190900Z 35008KT 15SM FEW150 09/07 A2982 RMK AC1 AC TR SLP099 DENSITY ALT 3900FT

EXPIRED METARs :
  • 190800Z 35011KT 15SM SKC 10/08 A2981 RMK SLP095 DENSITY ALT 4000FT
  • 190700Z 36013KT 15SM SKC 11/08 A2980 RMK SLP092 DENSITY ALT 4100FT

TAF TAF CYYC
Valid from the 19 at 09:00 until the 20 at 06:00 UTC


190839Z 1909/2006 35010KT P6SM SKC
FM191200 35010KT P6SM FEW008
TEMPO 1912/1917 BKN008
FM191700 01010KT P6SM FEW020
FM192300 04012KT P6SM SCT030
BECMG 2004/2006 VRB03KT RMK NXT FCST BY 191200Z
No reported NOTAMs for that airfield.



MET'MAP, your aeronautical weather chart ! - Copyright ORBIFLY December 2007 - Disclaimer

ORBIFLY MET'MAP TEAM :

Programming & Development : Alexandra Zaïnal
Concept & Development : Baudouin d'Aumeries
Co-Development & Prog : Marc-Olivier Méhu
Technical & hardware support : Manuel Goepfert

Contact : metmap@orbifly.com




SOURCES & CREDITS :

   NOAA       Earth
Advisory